Time;durP1;ratioP1;P1;durP2;ratioP2;P2;SDS_P1;SDS_P2;PMS_P1;PMS_P2;Temp;Humidity;BMP_temperature;BMP_pressure;BME280_temperature;BME280_humidity;BME280_pressure;Samples;Min_cycle;Max_cycle;Signal;HPM_P1;HPM_P2
2022/12/20 00:01:44;;;;;;;16.83;8.87;;;;;;;;;;5036073;28;20452;-61
2022/12/20 00:04:12;;;;;;;15.57;8.20;;;;;;;;;;5037126;28;20713;-61
2022/12/20 00:06:40;;;;;;;23.70;9.90;;;;;;;;;;5031257;28;20231;-61
2022/12/20 00:09:08;;;;;;;16.77;8.83;;;;;;;;;;5041351;28;20256;-61
2022/12/20 00:11:38;;;;;;;22.00;9.77;;;;;;;;;;5049025;28;20253;-61
2022/12/20 00:14:06;;;;;;;13.70;8.27;;;;;;;;;;5050066;28;20218;-61
2022/12/20 00:16:33;;;;;;;20.33;9.47;;;;;;;;;;5048630;28;20232;-61
2022/12/20 00:19:01;;;;;;;21.27;9.73;;;;;;;;;;5041338;28;20677;-61
2022/12/20 00:21:28;;;;;;;21.57;9.63;;;;;;;;;;5034562;28;20206;-61
2022/12/20 00:23:56;;;;;;;20.10;9.73;;;;;;;;;;5047679;28;20207;-61
2022/12/20 00:26:24;;;;;;;27.80;9.70;;;;;;;;;;5030271;28;20231;-61
2022/12/20 00:28:52;;;;;;;22.03;9.37;;;;;;;;;;5030247;28;20218;-61
2022/12/20 00:31:20;;;;;;;19.43;8.27;;;;;;;;;;5029847;28;20211;-61
2022/12/20 00:33:48;;;;;;;17.80;8.43;;;;;;;;;;5031178;28;20211;-60
2022/12/20 00:36:15;;;;;;;22.53;10.60;;;;;;;;;;5030508;28;20203;-61
2022/12/20 00:38:44;;;;;;;16.93;9.17;;;;;;;;;;5044869;28;20217;-61
2022/12/20 00:41:13;;;;;;;23.67;9.93;;;;;;;;;;5043460;28;20225;-63
2022/12/20 00:43:40;;;;;;;25.93;10.30;;;;;;;;;;5044990;28;20206;-61
2022/12/20 00:46:10;;;;;;;18.20;9.40;;;;;;;;;;5036437;28;20226;-61
2022/12/20 00:48:37;;;;;;;20.47;8.57;;;;;;;;;;5035930;28;20215;-61
2022/12/20 00:51:05;;;;;;;20.40;9.60;;;;;;;;;;5035146;28;20299;-61
2022/12/20 00:53:33;;;;;;;20.13;9.73;;;;;;;;;;5033650;28;20235;-61
2022/12/20 00:56:00;;;;;;;17.17;8.43;;;;;;;;;;5049632;28;20230;-61
2022/12/20 00:58:27;;;;;;;18.63;8.17;;;;;;;;;;5036069;28;20215;-62
2022/12/20 01:00:55;;;;;;;17.33;8.27;;;;;;;;;;5028982;28;20210;-61
2022/12/20 01:03:23;;;;;;;16.00;8.57;;;;;;;;;;5033643;28;20222;-61
2022/12/20 01:05:52;;;;;;;23.30;9.27;;;;;;;;;;5031218;28;20202;-61
2022/12/20 01:08:19;;;;;;;19.10;8.80;;;;;;;;;;5028521;28;20250;-61
2022/12/20 01:10:46;;;;;;;27.40;9.33;;;;;;;;;;5046283;28;20230;-61
2022/12/20 01:13:13;;;;;;;16.50;8.00;;;;;;;;;;5029075;28;20696;-61
2022/12/20 01:15:41;;;;;;;19.77;8.63;;;;;;;;;;5033971;28;20579;-61
2022/12/20 01:18:08;;;;;;;17.30;7.23;;;;;;;;;;5038402;28;20209;-61
2022/12/20 01:20:36;;;;;;;21.73;9.63;;;;;;;;;;5039226;28;20221;-61
2022/12/20 01:23:03;;;;;;;18.67;8.60;;;;;;;;;;5031302;28;20226;-61
2022/12/20 01:25:30;;;;;;;14.97;7.03;;;;;;;;;;5028680;28;20212;-61
2022/12/20 01:27:57;;;;;;;19.30;8.83;;;;;;;;;;5028783;28;20223;-61
2022/12/20 01:30:24;;;;;;;17.23;7.00;;;;;;;;;;5028850;28;20214;-61
2022/12/20 01:32:51;;;;;;;14.97;8.20;;;;;;;;;;5040473;28;20222;-63
2022/12/20 01:35:18;;;;;;;15.67;8.40;;;;;;;;;;5030974;28;20218;-61
2022/12/20 01:37:47;;;;;;;21.10;9.70;;;;;;;;;;5037552;28;20202;-61
2022/12/20 01:40:20;;;;;;;16.40;7.57;;;;;;;;;;5028720;28;20222;-61
2022/12/20 01:42:47;;;;;;;18.87;8.17;;;;;;;;;;5036419;28;20677;-61
2022/12/20 01:45:23;;;;;;;18.10;8.53;;;;;;;;;;5033348;28;20241;-62
2022/12/20 01:47:50;;;;;;;16.07;8.07;;;;;;;;;;5031669;28;20233;-61
2022/12/20 01:50:18;;;;;;;18.10;9.00;;;;;;;;;;5050064;28;20209;-61
2022/12/20 01:52:46;;;;;;;19.50;8.57;;;;;;;;;;5040792;28;20202;-61
2022/12/20 01:55:17;;;;;;;22.30;10.20;;;;;;;;;;5045770;28;20234;-62
2022/12/20 01:57:46;;;;;;;15.77;7.53;;;;;;;;;;5040623;28;20221;-61
2022/12/20 02:00:14;;;;;;;14.90;8.37;;;;;;;;;;5049009;28;20211;-61
2022/12/20 02:02:42;;;;;;;10.43;6.53;;;;;;;;;;5045497;28;20252;-61
2022/12/20 02:05:10;;;;;;;22.57;10.07;;;;;;;;;;5034217;28;20215;-61
2022/12/20 02:07:38;;;;;;;24.90;9.67;;;;;;;;;;5044294;28;20280;-61
2022/12/20 02:10:06;;;;;;;15.83;7.67;;;;;;;;;;5035476;28;20236;-61
2022/12/20 02:12:39;;;;;;;14.10;7.03;;;;;;;;;;5041441;28;20209;-61
2022/12/20 02:15:21;;;;;;;15.87;8.80;;;;;;;;;;5034860;28;20237;-61
2022/12/20 02:17:54;;;;;;;20.07;8.43;;;;;;;;;;5041512;28;20209;-61
2022/12/20 02:20:39;;;;;;;22.70;8.30;;;;;;;;;;5050738;28;20207;-63
2022/12/20 02:23:26;;;;;;;18.67;8.20;;;;;;;;;;5004708;28;20213;-61
2022/12/20 02:25:59;;;;;;;11.23;5.87;;;;;;;;;;5032093;28;20244;-61
2022/12/20 02:28:35;;;;;;;16.93;7.13;;;;;;;;;;5042498;28;20236;-61
2022/12/20 02:31:06;;;;;;;15.73;7.67;;;;;;;;;;5033947;28;20680;-61
2022/12/20 02:33:33;;;;;;;17.63;8.27;;;;;;;;;;5034808;28;20697;-60
2022/12/20 02:36:00;;;;;;;14.67;7.10;;;;;;;;;;5034262;28;20211;-60
2022/12/20 02:38:28;;;;;;;15.93;7.73;;;;;;;;;;5031720;28;20206;-60
2022/12/20 02:40:57;;;;;;;18.83;8.03;;;;;;;;;;5032829;28;20216;-61
2022/12/20 02:46:12;;;;;;;14.10;8.50;;;;;;;;;;5031525;28;20296;-60
2022/12/20 02:48:39;;;;;;;17.97;7.43;;;;;;;;;;5032055;28;20224;-60
2022/12/20 02:51:06;;;;;;;12.43;6.80;;;;;;;;;;5037240;28;20222;-60
2022/12/20 02:53:34;;;;;;;11.47;7.00;;;;;;;;;;5031393;28;20225;-61
2022/12/20 02:56:06;;;;;;;19.33;6.37;;;;;;;;;;5032266;28;20721;-61
2022/12/20 02:58:35;;;;;;;17.47;7.97;;;;;;;;;;5029944;28;20228;-60
2022/12/20 03:01:04;;;;;;;21.17;9.33;;;;;;;;;;5036859;28;20249;-60
2022/12/20 03:03:34;;;;;;;12.97;7.63;;;;;;;;;;5033094;28;20211;-60
2022/12/20 03:06:01;;;;;;;17.13;7.63;;;;;;;;;;5049668;28;20210;-60
2022/12/20 03:08:28;;;;;;;17.57;7.60;;;;;;;;;;5034269;28;20233;-60
2022/12/20 03:10:55;;;;;;;14.67;7.67;;;;;;;;;;5035760;28;20250;-61
2022/12/20 03:13:23;;;;;;;9.03;6.77;;;;;;;;;;5038397;28;20562;-60
2022/12/20 03:15:50;;;;;;;15.10;7.47;;;;;;;;;;5045322;28;20213;-61
2022/12/20 03:18:17;;;;;;;18.00;8.93;;;;;;;;;;5042946;28;20210;-61
2022/12/20 03:20:46;;;;;;;20.73;8.60;;;;;;;;;;5040660;28;20207;-60
2022/12/20 03:26:16;;;;;;;13.97;7.27;;;;;;;;;;5042358;28;20247;-60
2022/12/20 03:28:43;;;;;;;18.07;8.27;;;;;;;;;;5030803;28;20230;-61
2022/12/20 03:31:10;;;;;;;15.93;8.10;;;;;;;;;;5031271;28;20211;-61
2022/12/20 03:33:37;;;;;;;16.27;7.07;;;;;;;;;;5040699;28;20292;-60
2022/12/20 03:36:06;;;;;;;12.43;7.80;;;;;;;;;;5049216;28;20206;-60
2022/12/20 03:38:33;;;;;;;16.33;7.37;;;;;;;;;;5040722;28;20313;-60
2022/12/20 03:41:00;;;;;;;13.10;6.90;;;;;;;;;;5038771;28;20214;-61
2022/12/20 03:43:27;;;;;;;15.53;7.17;;;;;;;;;;5042468;28;20210;-61
2022/12/20 03:45:54;;;;;;;16.17;7.53;;;;;;;;;;5035876;28;20218;-61
2022/12/20 03:48:21;;;;;;;15.20;7.90;;;;;;;;;;5037759;28;20311;-61
2022/12/20 03:50:48;;;;;;;13.80;7.77;;;;;;;;;;5045435;28;20221;-63
2022/12/20 03:53:16;;;;;;;14.03;7.10;;;;;;;;;;5034330;28;20214;-61
2022/12/20 03:55:43;;;;;;;14.90;7.00;;;;;;;;;;5031553;28;20234;-61
2022/12/20 03:58:10;;;;;;;15.83;7.17;;;;;;;;;;5030032;28;20211;-60
2022/12/20 04:00:37;;;;;;;11.53;6.03;;;;;;;;;;5043199;28;20219;-61
2022/12/20 04:03:04;;;;;;;14.27;7.10;;;;;;;;;;5031356;28;20234;-61
2022/12/20 04:05:31;;;;;;;13.70;8.03;;;;;;;;;;5031891;28;20583;-60
2022/12/20 04:07:58;;;;;;;14.13;7.50;;;;;;;;;;5029882;28;20232;-61
2022/12/20 04:10:27;;;;;;;17.13;8.00;;;;;;;;;;5030381;28;20240;-60
2022/12/20 04:12:54;;;;;;;15.53;7.37;;;;;;;;;;5029643;28;20210;-60
2022/12/20 04:15:21;;;;;;;14.03;7.23;;;;;;;;;;5030404;28;20218;-60
2022/12/20 04:17:48;;;;;;;14.33;7.77;;;;;;;;;;5044465;28;20222;-63
2022/12/20 04:20:18;;;;;;;19.70;7.87;;;;;;;;;;5046639;28;20215;-60
2022/12/20 04:22:46;;;;;;;15.87;7.33;;;;;;;;;;5046737;28;20202;-60
2022/12/20 04:25:13;;;;;;;16.63;6.93;;;;;;;;;;5028627;28;20238;-60
2022/12/20 04:27:41;;;;;;;14.80;7.53;;;;;;;;;;5040184;28;20623;-60
2022/12/20 04:30:09;;;;;;;11.43;6.10;;;;;;;;;;5032817;28;20591;-61
2022/12/20 04:32:36;;;;;;;20.50;7.70;;;;;;;;;;5029627;28;20580;-61
2022/12/20 04:35:03;;;;;;;16.30;7.87;;;;;;;;;;5033879;28;20703;-61
2022/12/20 04:37:31;;;;;;;15.60;8.10;;;;;;;;;;5041325;28;20717;-60
2022/12/20 04:39:58;;;;;;;24.23;7.60;;;;;;;;;;5039805;28;20215;-60
2022/12/20 04:42:25;;;;;;;16.70;7.43;;;;;;;;;;5041207;28;20310;-60
2022/12/20 04:44:53;;;;;;;13.30;6.97;;;;;;;;;;5037009;28;20233;-60
2022/12/20 04:47:21;;;;;;;10.90;6.50;;;;;;;;;;5040898;28;20238;-60
2022/12/20 04:49:48;;;;;;;14.07;8.07;;;;;;;;;;5035890;28;20884;-60
2022/12/20 04:54:59;;;;;;;16.23;6.73;;;;;;;;;;5044312;28;20780;-60
2022/12/20 04:57:27;;;;;;;17.00;7.13;;;;;;;;;;5040682;28;20205;-60
2022/12/20 04:59:55;;;;;;;17.73;8.60;;;;;;;;;;5029973;28;20211;-60
2022/12/20 05:02:22;;;;;;;16.33;6.80;;;;;;;;;;5034060;28;20211;-60
2022/12/20 05:04:49;;;;;;;18.17;7.30;;;;;;;;;;5029740;28;20207;-60
2022/12/20 05:07:16;;;;;;;10.50;6.93;;;;;;;;;;5032469;28;20219;-61
2022/12/20 05:09:43;;;;;;;11.27;6.60;;;;;;;;;;5047133;28;20245;-60
2022/12/20 05:12:10;;;;;;;19.60;8.20;;;;;;;;;;5048382;28;20217;-60
2022/12/20 05:14:37;;;;;;;15.20;7.47;;;;;;;;;;5043407;28;20210;-60
2022/12/20 05:17:06;;;;;;;12.47;6.60;;;;;;;;;;5031063;28;20210;-60
2022/12/20 05:19:33;;;;;;;18.33;8.57;;;;;;;;;;5037610;28;20198;-60
2022/12/20 05:27:41;;;;;;;14.07;7.20;;;;;;;;;;5029709;28;20273;-60
2022/12/20 05:30:09;;;;;;;12.27;6.47;;;;;;;;;;5047357;28;20689;-60
2022/12/20 05:32:37;;;;;;;17.00;7.17;;;;;;;;;;5031812;28;20670;-61
2022/12/20 05:35:04;;;;;;;13.27;6.63;;;;;;;;;;5028279;28;20289;-60
2022/12/20 05:37:31;;;;;;;12.80;6.97;;;;;;;;;;5029842;28;20740;-61
2022/12/20 05:39:58;;;;;;;13.27;7.53;;;;;;;;;;5029527;28;20219;-61
2022/12/20 05:42:25;;;;;;;15.03;8.27;;;;;;;;;;5031987;28;20233;-61
2022/12/20 05:44:52;;;;;;;24.00;9.27;;;;;;;;;;5048649;28;20207;-61
2022/12/20 05:47:20;;;;;;;17.90;7.97;;;;;;;;;;5038221;28;20207;-61
2022/12/20 05:49:48;;;;;;;11.73;7.37;;;;;;;;;;5029828;28;20219;-61
2022/12/20 05:52:15;;;;;;;15.50;7.97;;;;;;;;;;5028987;28;20229;-61
2022/12/20 05:54:42;;;;;;;7.30;6.10;;;;;;;;;;5047898;28;20232;-60
2022/12/20 05:57:09;;;;;;;14.47;7.83;;;;;;;;;;5044916;28;20638;-61
2022/12/20 05:59:36;;;;;;;11.90;6.73;;;;;;;;;;5042523;28;20211;-61
2022/12/20 06:02:03;;;;;;;23.23;11.33;;;;;;;;;;5037173;28;20655;-60
2022/12/20 06:04:33;;;;;;;19.33;9.30;;;;;;;;;;5029164;28;20238;-61
2022/12/20 06:07:08;;;;;;;15.27;6.77;;;;;;;;;;5037990;28;20583;-61
2022/12/20 06:09:35;;;;;;;15.07;6.27;;;;;;;;;;5026287;28;20236;-60
2022/12/20 06:12:02;;;;;;;13.90;7.33;;;;;;;;;;5035733;28;20241;-61
2022/12/20 06:14:29;;;;;;;10.70;5.63;;;;;;;;;;5028703;28;20219;-61
2022/12/20 06:16:56;;;;;;;12.60;6.87;;;;;;;;;;5028464;28;20203;-61
2022/12/20 06:19:23;;;;;;;16.40;7.47;;;;;;;;;;5029133;28;20211;-61
2022/12/20 06:21:51;;;;;;;11.20;7.33;;;;;;;;;;5030404;28;20214;-61
2022/12/20 06:24:20;;;;;;;17.07;7.23;;;;;;;;;;5030048;28;20214;-61
2022/12/20 06:26:47;;;;;;;19.00;9.23;;;;;;;;;;5027387;28;20237;-61
2022/12/20 06:29:16;;;;;;;10.27;6.33;;;;;;;;;;5034262;28;20240;-61
2022/12/20 06:31:43;;;;;;;15.70;8.53;;;;;;;;;;5036442;28;20222;-66
2022/12/20 06:34:10;;;;;;;23.77;8.33;;;;;;;;;;5037593;28;20210;-61
2022/12/20 06:36:37;;;;;;;19.63;7.50;;;;;;;;;;5045337;28;20214;-60
2022/12/20 06:39:04;;;;;;;18.30;7.50;;;;;;;;;;5042347;28;20207;-61
2022/12/20 06:41:32;;;;;;;12.27;6.63;;;;;;;;;;5033700;28;20210;-61
2022/12/20 06:43:59;;;;;;;14.30;6.90;;;;;;;;;;5049134;28;20234;-61
2022/12/20 06:46:27;;;;;;;11.97;7.23;;;;;;;;;;5050042;28;20213;-61
2022/12/20 06:48:54;;;;;;;19.60;8.47;;;;;;;;;;5045469;28;20709;-61
2022/12/20 06:51:21;;;;;;;16.67;7.70;;;;;;;;;;5045166;28;20214;-61
2022/12/20 06:56:49;;;;;;;11.70;6.73;;;;;;;;;;5020560;28;20310;-60
2022/12/20 06:59:16;;;;;;;13.17;7.30;;;;;;;;;;5031221;28;20219;-61
2022/12/20 07:01:44;;;;;;;16.97;8.13;;;;;;;;;;5039476;28;20210;-60
2022/12/20 07:04:11;;;;;;;11.10;6.40;;;;;;;;;;5048510;28;20926;-62
2022/12/20 07:06:38;;;;;;;12.67;7.23;;;;;;;;;;5034537;28;20234;-60
2022/12/20 07:09:05;;;;;;;13.00;7.37;;;;;;;;;;5031249;28;20237;-60
2022/12/20 07:11:32;;;;;;;11.63;6.37;;;;;;;;;;5031079;28;20241;-60
2022/12/20 07:14:01;;;;;;;15.63;6.53;;;;;;;;;;5031348;28;20211;-60
2022/12/20 07:16:28;;;;;;;14.83;8.07;;;;;;;;;;5031065;28;21020;-60
2022/12/20 07:18:55;;;;;;;16.23;7.63;;;;;;;;;;5030974;28;20590;-60
2022/12/20 07:21:22;;;;;;;12.47;7.73;;;;;;;;;;5030985;28;20223;-60
2022/12/20 07:23:49;;;;;;;12.87;6.63;;;;;;;;;;5034427;28;20210;-60
2022/12/20 07:26:16;;;;;;;15.27;8.63;;;;;;;;;;5031086;28;20227;-61
2022/12/20 07:28:44;;;;;;;13.93;8.17;;;;;;;;;;5031083;28;20239;-61
2022/12/20 07:31:12;;;;;;;15.13;7.37;;;;;;;;;;5031235;28;20685;-61
2022/12/20 07:33:39;;;;;;;14.33;6.97;;;;;;;;;;5031229;28;20211;-61
2022/12/20 07:36:07;;;;;;;14.43;7.60;;;;;;;;;;5030648;28;20712;-61
2022/12/20 07:38:35;;;;;;;10.00;6.30;;;;;;;;;;5040675;28;20196;-62
2022/12/20 07:41:02;;;;;;;15.73;9.77;;;;;;;;;;5050820;28;20215;-62
2022/12/20 07:43:29;;;;;;;15.47;9.80;;;;;;;;;;5043602;28;20219;-62
2022/12/20 07:45:56;;;;;;;21.03;10.00;;;;;;;;;;5040440;28;20384;-61
2022/12/20 07:48:25;;;;;;;21.97;9.57;;;;;;;;;;5050814;28;20239;-61
2022/12/20 07:50:53;;;;;;;17.67;9.33;;;;;;;;;;5045340;28;20207;-61
2022/12/20 07:53:21;;;;;;;15.73;8.77;;;;;;;;;;5030687;28;20693;-61
2022/12/20 07:55:49;;;;;;;17.90;8.70;;;;;;;;;;5030185;28;20240;-62
2022/12/20 07:58:17;;;;;;;22.10;8.00;;;;;;;;;;5030476;28;20254;-62
2022/12/20 08:00:45;;;;;;;14.33;7.50;;;;;;;;;;5030544;28;20308;-61
2022/12/20 08:03:15;;;;;;;16.73;8.13;;;;;;;;;;5030687;28;20310;-62
2022/12/20 08:05:46;;;;;;;17.00;8.40;;;;;;;;;;5031034;28;20218;-61
2022/12/20 08:08:13;;;;;;;14.60;8.07;;;;;;;;;;5031644;28;20223;-61
2022/12/20 08:10:40;;;;;;;17.13;9.03;;;;;;;;;;5041736;28;20240;-61
2022/12/20 08:13:08;;;;;;;17.43;9.80;;;;;;;;;;5030466;28;20696;-62
2022/12/20 08:15:35;;;;;;;19.67;9.10;;;;;;;;;;5030285;28;20215;-61
2022/12/20 08:18:02;;;;;;;19.33;9.97;;;;;;;;;;5029868;28;20216;-61
2022/12/20 08:20:29;;;;;;;20.47;9.33;;;;;;;;;;5030507;28;20204;-61
2022/12/20 08:22:58;;;;;;;13.20;8.47;;;;;;;;;;5030392;28;20230;-61
2022/12/20 08:25:25;;;;;;;26.50;10.27;;;;;;;;;;5030133;28;20216;-61
2022/12/20 08:27:52;;;;;;;17.40;7.73;;;;;;;;;;5030054;28;20222;-61
2022/12/20 08:30:19;;;;;;;13.87;8.43;;;;;;;;;;5029736;28;20723;-61
2022/12/20 08:32:46;;;;;;;15.07;8.00;;;;;;;;;;5029926;28;20445;-61
2022/12/20 08:35:13;;;;;;;16.20;8.90;;;;;;;;;;5029414;28;20705;-61
2022/12/20 08:37:40;;;;;;;15.73;8.77;;;;;;;;;;5029169;28;20216;-61
2022/12/20 08:40:10;;;;;;;14.40;6.97;;;;;;;;;;5030222;28;20211;-61
2022/12/20 08:42:37;;;;;;;12.40;7.27;;;;;;;;;;5028989;28;20210;-61
2022/12/20 08:45:04;;;;;;;22.60;8.27;;;;;;;;;;5030425;28;20218;-62
2022/12/20 08:47:31;;;;;;;20.53;7.77;;;;;;;;;;5049207;28;20338;-62
2022/12/20 08:49:58;;;;;;;20.70;8.07;;;;;;;;;;5048409;28;20920;-62
2022/12/20 08:52:25;;;;;;;16.70;7.67;;;;;;;;;;5047632;28;20202;-62
2022/12/20 08:54:52;;;;;;;13.07;7.27;;;;;;;;;;5041564;28;20220;-62
2022/12/20 08:57:21;;;;;;;11.97;7.60;;;;;;;;;;5047598;28;20204;-62
2022/12/20 09:00:15;;;;;;;14.77;7.13;;;;;;;;;;5044965;28;20665;-61
2022/12/20 09:02:42;;;;;;;22.60;9.23;;;;;;;;;;5042531;28;20679;-61
2022/12/20 09:05:10;;;;;;;17.40;8.10;;;;;;;;;;5045465;28;20207;-62
2022/12/20 09:07:37;;;;;;;21.00;8.67;;;;;;;;;;5034086;28;20219;-61
2022/12/20 09:10:04;;;;;;;17.50;9.00;;;;;;;;;;5035168;28;20248;-62
2022/12/20 09:12:33;;;;;;;11.97;8.83;;;;;;;;;;5031953;28;20250;-61
2022/12/20 09:15:00;;;;;;;18.83;8.83;;;;;;;;;;5048308;28;20274;-62
2022/12/20 09:17:27;;;;;;;18.07;8.50;;;;;;;;;;5047533;28;20229;-62
2022/12/20 09:19:54;;;;;;;15.20;8.20;;;;;;;;;;5032824;28;20687;-61
2022/12/20 09:22:21;;;;;;;16.30;9.37;;;;;;;;;;5030013;28;20212;-61
2022/12/20 09:24:49;;;;;;;19.17;8.80;;;;;;;;;;5030977;28;20223;-62
2022/12/20 09:27:16;;;;;;;21.17;9.87;;;;;;;;;;5045106;28;20294;-62
2022/12/20 09:29:44;;;;;;;18.03;9.67;;;;;;;;;;5048133;28;20227;-62
2022/12/20 09:32:11;;;;;;;17.47;9.27;;;;;;;;;;5031597;28;20282;-62
2022/12/20 09:34:39;;;;;;;19.80;9.43;;;;;;;;;;5028648;28;20208;-61
2022/12/20 09:37:06;;;;;;;18.37;10.00;;;;;;;;;;5040353;28;20304;-64
2022/12/20 09:39:33;;;;;;;18.30;8.83;;;;;;;;;;5037472;28;20212;-62
2022/12/20 09:42:00;;;;;;;16.03;7.77;;;;;;;;;;5040712;28;20215;-62
2022/12/20 09:44:29;;;;;;;15.87;9.13;;;;;;;;;;5035112;28;20216;-62
2022/12/20 09:46:59;;;;;;;22.73;8.00;;;;;;;;;;5048243;28;20216;-62
2022/12/20 09:49:29;;;;;;;18.87;9.00;;;;;;;;;;5034493;28;20224;-63
2022/12/20 09:52:14;;;;;;;19.73;9.33;;;;;;;;;;5037341;28;20216;-62
2022/12/20 09:54:47;;;;;;;23.97;9.93;;;;;;;;;;5027778;28;20223;-62
2022/12/20 09:57:19;;;;;;;18.53;8.83;;;;;;;;;;5028252;28;20216;-61
2022/12/20 09:59:46;;;;;;;14.17;8.63;;;;;;;;;;5037514;28;20207;-61
2022/12/20 10:02:16;;;;;;;24.93;11.33;;;;;;;;;;5048053;28;20257;-63
2022/12/20 10:04:43;;;;;;;16.17;8.13;;;;;;;;;;5044328;28;20215;-62
2022/12/20 10:07:19;;;;;;;24.63;8.97;;;;;;;;;;5045496;28;20573;-61
2022/12/20 10:09:54;;;;;;;16.40;8.03;;;;;;;;;;5031130;28;20302;-63
2022/12/20 10:12:27;;;;;;;16.93;8.73;;;;;;;;;;5031982;28;20211;-62
2022/12/20 10:15:01;;;;;;;23.37;9.67;;;;;;;;;;5031845;28;20813;-62
2022/12/20 10:17:37;;;;;;;21.90;10.77;;;;;;;;;;5046027;28;20302;-62
2022/12/20 10:20:10;;;;;;;25.97;11.70;;;;;;;;;;5048611;28;20204;-63
2022/12/20 10:22:41;;;;;;;29.30;9.83;;;;;;;;;;5035540;28;20212;-62
2022/12/20 10:25:14;;;;;;;23.17;8.47;;;;;;;;;;5049945;28;20204;-64
2022/12/20 10:27:41;;;;;;;20.23;10.00;;;;;;;;;;5051226;28;20734;-63
2022/12/20 10:30:12;;;;;;;18.83;9.63;;;;;;;;;;5049326;28;20232;-62
2022/12/20 10:32:41;;;;;;;25.07;11.70;;;;;;;;;;5031421;28;20197;-62
2022/12/20 10:35:19;;;;;;;25.63;12.70;;;;;;;;;;5032308;28;20209;-62
2022/12/20 10:37:57;;;;;;;28.70;11.27;;;;;;;;;;5031649;28;20242;-61
2022/12/20 10:40:27;;;;;;;29.27;12.93;;;;;;;;;;5038803;28;20209;-64
2022/12/20 10:42:54;;;;;;;30.20;11.27;;;;;;;;;;5049730;28;20203;-64
2022/12/20 10:45:27;;;;;;;29.00;11.97;;;;;;;;;;5031226;28;20212;-63
2022/12/20 10:47:59;;;;;;;23.10;10.80;;;;;;;;;;5032028;28;20621;-63
2022/12/20 10:50:26;;;;;;;21.57;10.30;;;;;;;;;;5029589;28;20232;-62
2022/12/20 10:53:04;;;;;;;25.40;11.33;;;;;;;;;;5044651;28;20208;-63
2022/12/20 10:55:35;;;;;;;21.97;10.77;;;;;;;;;;5041725;28;20438;-63
2022/12/20 10:58:04;;;;;;;24.90;11.30;;;;;;;;;;5029633;28;20212;-63
2022/12/20 11:00:32;;;;;;;29.00;10.90;;;;;;;;;;5027384;28;20216;-62
2022/12/20 11:03:06;;;;;;;22.83;9.87;;;;;;;;;;5031346;28;20220;-62
2022/12/20 11:05:33;;;;;;;17.33;8.93;;;;;;;;;;5038645;28;20217;-63
2022/12/20 11:08:07;;;;;;;20.77;9.00;;;;;;;;;;5038607;28;20233;-64
2022/12/20 11:10:34;;;;;;;19.07;10.70;;;;;;;;;;5035442;28;20318;-64
2022/12/20 11:13:02;;;;;;;19.87;9.53;;;;;;;;;;5048269;28;20698;-62
2022/12/20 11:15:31;;;;;;;17.63;9.47;;;;;;;;;;5036656;28;20217;-62
2022/12/20 11:18:01;;;;;;;19.50;9.57;;;;;;;;;;5031882;28;20605;-62
2022/12/20 11:20:35;;;;;;;24.93;9.60;;;;;;;;;;5033971;28;20848;-62
2022/12/20 11:23:08;;;;;;;19.03;9.67;;;;;;;;;;5033462;28;20583;-62
2022/12/20 11:25:42;;;;;;;19.40;10.23;;;;;;;;;;5049645;28;20207;-61
2022/12/20 11:28:20;;;;;;;20.37;9.67;;;;;;;;;;5048814;28;20691;-64
2022/12/20 11:30:50;;;;;;;22.17;11.60;;;;;;;;;;5043302;28;20220;-63
2022/12/20 11:33:29;;;;;;;25.73;10.73;;;;;;;;;;5040862;28;20881;-62
2022/12/20 11:36:03;;;;;;;24.97;9.87;;;;;;;;;;5045136;28;20217;-67
2022/12/20 11:38:35;;;;;;;29.27;11.43;;;;;;;;;;5033252;28;20208;-62
2022/12/20 11:41:10;;;;;;;28.57;10.97;;;;;;;;;;5028760;28;20212;-62
2022/12/20 11:43:45;;;;;;;21.57;11.07;;;;;;;;;;5030697;28;20303;-62
2022/12/20 11:46:20;;;;;;;23.57;9.77;;;;;;;;;;5045047;28;20222;-62
2022/12/20 11:48:55;;;;;;;26.70;11.43;;;;;;;;;;5035695;28;20211;-62
2022/12/20 11:51:24;;;;;;;20.97;10.43;;;;;;;;;;5038215;28;20957;-62
2022/12/20 11:53:55;;;;;;;23.80;10.67;;;;;;;;;;5030578;28;20714;-62
2022/12/20 11:56:25;;;;;;;19.77;11.40;;;;;;;;;;5028672;28;20231;-62
2022/12/20 11:58:54;;;;;;;21.80;10.93;;;;;;;;;;5028539;28;20323;-62
2022/12/20 12:01:25;;;;;;;22.20;11.27;;;;;;;;;;5033891;28;20239;-62
2022/12/20 12:03:58;;;;;;;24.33;11.40;;;;;;;;;;5028486;28;20583;-62
2022/12/20 12:06:29;;;;;;;26.97;13.33;;;;;;;;;;5028736;28;20274;-62
2022/12/20 12:09:04;;;;;;;21.80;10.97;;;;;;;;;;5028529;28;20234;-62
2022/12/20 12:11:32;;;;;;;25.13;14.40;;;;;;;;;;5027720;28;20944;-63
2022/12/20 12:14:01;;;;;;;31.77;13.13;;;;;;;;;;5043667;28;20215;-63
2022/12/20 12:16:30;;;;;;;26.33;12.93;;;;;;;;;;5046736;28;20222;-65
2022/12/20 12:18:58;;;;;;;25.90;12.37;;;;;;;;;;5048138;28;20208;-63
2022/12/20 12:21:29;;;;;;;28.27;14.57;;;;;;;;;;5041009;28;20639;-63
2022/12/20 12:23:59;;;;;;;25.03;13.43;;;;;;;;;;5035887;28;20295;-62
2022/12/20 12:26:28;;;;;;;24.70;14.20;;;;;;;;;;5025283;28;20225;-61
2022/12/20 12:28:56;;;;;;;34.60;12.50;;;;;;;;;;5026506;28;20220;-61
2022/12/20 12:31:28;;;;;;;27.17;12.60;;;;;;;;;;5035709;28;20232;-60
2022/12/20 12:33:59;;;;;;;24.30;11.87;;;;;;;;;;5031154;28;20221;-61
2022/12/20 12:36:37;;;;;;;24.43;12.17;;;;;;;;;;5049880;28;20212;-60
2022/12/20 12:39:28;;;;;;;21.33;12.23;;;;;;;;;;5030670;28;20212;-61
2022/12/20 12:42:06;;;;;;;27.37;13.80;;;;;;;;;;5020238;28;21123;-61
2022/12/20 12:44:37;;;;;;;18.43;11.60;;;;;;;;;;5045488;28;20239;-61
2022/12/20 12:47:07;;;;;;;28.47;12.57;;;;;;;;;;5047510;28;20215;-63
2022/12/20 12:49:34;;;;;;;27.30;12.37;;;;;;;;;;5048961;28;20662;-62
2022/12/20 12:52:04;;;;;;;18.23;10.33;;;;;;;;;;5040877;28;20231;-61
2022/12/20 12:54:36;;;;;;;18.07;10.20;;;;;;;;;;5029004;28;20227;-61
2022/12/20 12:57:07;;;;;;;22.23;10.40;;;;;;;;;;5029283;28;20223;-61
2022/12/20 12:59:46;;;;;;;19.33;10.77;;;;;;;;;;5048560;28;20216;-61
2022/12/20 13:02:28;;;;;;;26.13;12.13;;;;;;;;;;5047323;28;20215;-62
2022/12/20 13:04:56;;;;;;;23.60;12.53;;;;;;;;;;5029011;28;20209;-62
2022/12/20 13:07:29;;;;;;;20.43;11.60;;;;;;;;;;5028383;28;20247;-62
2022/12/20 13:09:56;;;;;;;18.63;10.83;;;;;;;;;;5028023;28;20314;-62
2022/12/20 13:12:42;;;;;;;23.57;11.03;;;;;;;;;;5028249;28;20220;-61
2022/12/20 13:15:23;;;;;;;23.07;11.23;;;;;;;;;;5020757;28;20216;-62
2022/12/20 13:17:52;;;;;;;18.37;9.33;;;;;;;;;;5027440;28;20224;-62
2022/12/20 13:20:20;;;;;;;19.77;11.43;;;;;;;;;;5027732;28;20215;-62
2022/12/20 13:23:02;;;;;;;19.30;10.47;;;;;;;;;;5041905;28;20242;-62
2022/12/20 13:25:31;;;;;;;29.97;12.00;;;;;;;;;;5047584;28;20215;-62
2022/12/20 13:28:14;;;;;;;24.40;11.30;;;;;;;;;;5031454;28;20765;-63
2022/12/20 13:30:41;;;;;;;22.23;9.40;;;;;;;;;;5031593;28;20255;-63
2022/12/20 13:33:22;;;;;;;17.53;10.20;;;;;;;;;;5037589;28;20214;-60
2022/12/20 13:36:18;;;;;;;21.83;10.50;;;;;;;;;;5027479;28;20630;-62
2022/12/20 13:38:52;;;;;;;17.60;9.30;;;;;;;;;;5034715;28;20212;-63
2022/12/20 13:41:26;;;;;;;17.33;10.60;;;;;;;;;;5047230;28;20199;-63
2022/12/20 13:43:54;;;;;;;16.90;9.93;;;;;;;;;;5031248;28;20219;-60
2022/12/20 13:46:22;;;;;;;43.77;16.87;;;;;;;;;;5039767;28;20673;-63
2022/12/20 13:48:52;;;;;;;27.37;12.83;;;;;;;;;;5033966;28;20841;-63
2022/12/20 13:51:19;;;;;;;25.33;11.77;;;;;;;;;;5027673;28;20584;-63
2022/12/20 13:53:52;;;;;;;18.10;9.60;;;;;;;;;;5027495;28;20239;-63
2022/12/20 13:56:32;;;;;;;17.03;10.23;;;;;;;;;;5028296;28;20247;-63
2022/12/20 13:59:03;;;;;;;23.17;9.47;;;;;;;;;;5027517;28;20211;-63
2022/12/20 14:01:31;;;;;;;23.30;11.60;;;;;;;;;;5033841;28;20199;-63
2022/12/20 14:03:58;;;;;;;24.50;11.00;;;;;;;;;;5034222;28;20240;-63
2022/12/20 14:06:25;;;;;;;20.60;10.37;;;;;;;;;;5028342;28;20220;-63
2022/12/20 14:08:53;;;;;;;17.77;10.27;;;;;;;;;;5039185;28;20208;-63
2022/12/20 14:11:21;;;;;;;27.77;10.73;;;;;;;;;;5028216;28;20705;-63
2022/12/20 14:13:54;;;;;;;20.63;11.17;;;;;;;;;;5035878;28;20292;-63
2022/12/20 14:16:22;;;;;;;11.13;7.20;;;;;;;;;;5036416;28;20213;-63
2022/12/20 14:18:49;;;;;;;16.37;9.43;;;;;;;;;;5027586;28;20212;-63
2022/12/20 14:21:17;;;;;;;22.80;11.30;;;;;;;;;;5027754;28;20204;-63
2022/12/20 14:23:46;;;;;;;15.60;9.87;;;;;;;;;;5027760;28;20208;-63
2022/12/20 14:26:15;;;;;;;20.00;10.57;;;;;;;;;;5027802;28;20232;-64
2022/12/20 14:28:44;;;;;;;24.07;12.23;;;;;;;;;;5030796;28;20654;-63
2022/12/20 14:31:24;;;;;;;18.30;9.60;;;;;;;;;;5047523;28;20680;-63
2022/12/20 14:33:52;;;;;;;14.80;9.67;;;;;;;;;;5027696;28;20306;-63
2022/12/20 14:36:19;;;;;;;19.80;9.50;;;;;;;;;;5027084;28;20677;-63
2022/12/20 14:38:47;;;;;;;28.77;12.93;;;;;;;;;;5040756;28;20219;-63
2022/12/20 14:41:34;;;;;;;13.00;8.87;;;;;;;;;;5043677;28;20200;-63
2022/12/20 14:44:04;;;;;;;19.17;8.87;;;;;;;;;;5047608;28;20212;-63
2022/12/20 14:46:32;;;;;;;16.63;8.10;;;;;;;;;;5047982;28;20678;-63
2022/12/20 14:49:07;;;;;;;17.63;9.00;;;;;;;;;;5045632;28;20231;-63
2022/12/20 14:51:35;;;;;;;19.97;9.30;;;;;;;;;;5047909;28;20235;-63
2022/12/20 14:54:02;;;;;;;18.83;11.60;;;;;;;;;;5046268;28;20307;-62
2022/12/20 14:56:29;;;;;;;17.27;10.27;;;;;;;;;;5030852;28;20236;-63